Time;durP1;ratioP1;P1;durP2;ratioP2;P2;SDS_P1;SDS_P2;PMS_P1;PMS_P2;Temp;Humidity;BMP_temperature;BMP_pressure;BME280_temperature;BME280_humidity;BME280_pressure;Samples;Min_cycle;Max_cycle;Signal;HPM_P1;HPM_P2
2022/01/04 00:01:49;;;;;;;8.35;5.22;;;;;;;10.00;100.00;100839.03;4978434;28;20070;-71
2022/01/04 00:04:36;;;;;;;8.07;5.22;;;;;;;10.11;100.00;100837.19;4964676;28;20022;-72
2022/01/04 00:07:22;;;;;;;8.95;5.35;;;;;;;9.86;100.00;100861.91;4964706;28;20158;-71
2022/01/04 00:10:08;;;;;;;9.30;5.43;;;;;;;10.03;100.00;100855.59;4978850;28;20041;-71
2022/01/04 00:15:59;;;;;;;8.65;5.38;;;;;;;9.60;100.00;100850.88;4979121;28;20045;-70
2022/01/04 00:18:46;;;;;;;6.97;5.10;;;;;;;9.84;100.00;100855.81;4978692;28;20019;-71
2022/01/04 00:21:32;;;;;;;8.40;5.53;;;;;;;9.94;100.00;100854.84;4978977;28;20122;-70
2022/01/04 00:24:18;;;;;;;8.65;5.03;;;;;;;10.01;100.00;100856.50;4977895;28;20467;-70
2022/01/04 00:27:04;;;;;;;7.85;5.10;;;;;;;9.60;100.00;100857.00;4965439;28;20027;-72
2022/01/04 00:29:50;;;;;;;9.10;4.88;;;;;;;9.65;100.00;100851.72;4978512;28;20118;-71
2022/01/04 00:32:36;;;;;;;7.68;5.13;;;;;;;9.70;100.00;100857.75;4978784;28;20451;-71
2022/01/04 00:35:22;;;;;;;7.15;5.25;;;;;;;9.73;100.00;100852.50;4978211;28;20408;-71
2022/01/04 00:38:08;;;;;;;7.22;5.00;;;;;;;9.51;100.00;100859.72;4965275;28;20123;-70
2022/01/04 00:40:53;;;;;;;8.10;5.07;;;;;;;9.56;100.00;100872.72;4978842;28;20031;-71
2022/01/04 00:43:39;;;;;;;9.43;5.57;;;;;;;9.49;100.00;100892.00;4978921;28;20022;-70
2022/01/04 00:46:25;;;;;;;8.55;5.32;;;;;;;9.56;100.00;100904.09;4965172;28;20027;-70
2022/01/04 00:49:11;;;;;;;8.27;5.00;;;;;;;9.35;100.00;100897.38;4965062;28;20422;-71
2022/01/04 00:52:00;;;;;;;8.32;5.15;;;;;;;9.39;100.00;100892.97;4978311;28;20109;-71
2022/01/04 00:54:46;;;;;;;9.23;5.40;;;;;;;9.34;100.00;100881.69;4978295;28;20023;-71
2022/01/04 00:57:32;;;;;;;8.20;5.65;;;;;;;9.36;100.00;100898.22;4964964;28;20031;-71
2022/01/04 01:00:19;;;;;;;8.02;5.20;;;;;;;9.21;100.00;100890.53;4977052;28;20031;-70
2022/01/04 01:03:06;;;;;;;9.30;5.72;;;;;;;9.26;100.00;100884.38;4964798;28;20046;-71
2022/01/04 01:05:52;;;;;;;8.45;5.10;;;;;;;9.17;100.00;100889.69;4977789;28;20030;-71
2022/01/04 01:08:37;;;;;;;7.72;5.60;;;;;;;9.36;100.00;100872.94;4978816;28;20367;-71
2022/01/04 01:11:24;;;;;;;10.02;5.97;;;;;;;9.42;100.00;100888.59;4977925;28;20069;-71
2022/01/04 01:14:09;;;;;;;11.93;5.72;;;;;;;9.35;100.00;100886.03;4978390;28;20038;-71
2022/01/04 01:16:55;;;;;;;11.70;5.63;;;;;;;9.33;100.00;100885.19;4978026;28;20038;-70
2022/01/04 01:19:41;;;;;;;9.52;6.07;;;;;;;9.28;100.00;100889.56;4964017;28;20038;-72
2022/01/04 01:22:27;;;;;;;9.38;6.13;;;;;;;9.36;100.00;100887.75;4978153;28;20030;-71
2022/01/04 01:25:13;;;;;;;10.30;6.00;;;;;;;9.35;100.00;100886.91;4978259;28;20022;-71
2022/01/04 01:27:59;;;;;;;12.38;6.15;;;;;;;9.31;100.00;100879.09;4977932;28;20058;-71
2022/01/04 01:30:45;;;;;;;11.43;6.35;;;;;;;9.44;100.00;100872.84;4978018;28;20030;-72
2022/01/04 01:33:31;;;;;;;11.23;6.10;;;;;;;9.55;100.00;100882.34;4977662;28;20031;-71
2022/01/04 01:36:17;;;;;;;9.98;6.25;;;;;;;9.36;100.00;100878.16;4977922;28;20094;-71
2022/01/04 01:39:03;;;;;;;11.43;6.80;;;;;;;9.13;100.00;100889.72;4963347;28;20037;-70
2022/01/04 01:41:49;;;;;;;8.93;6.97;;;;;;;9.15;100.00;100883.63;4963594;28;20098;-71
2022/01/04 01:47:41;;;;;;;11.48;7.50;;;;;;;9.24;100.00;100891.34;6131182;23;20026;-72
2022/01/04 01:50:27;;;;;;;14.95;7.53;;;;;;;9.14;100.00;100901.91;4957637;28;20043;-70
2022/01/04 01:53:13;;;;;;;11.07;7.55;;;;;;;9.41;100.00;100885.97;4957610;29;20043;-71
2022/01/04 01:56:00;;;;;;;12.25;7.90;;;;;;;9.11;100.00;100886.25;4958242;28;20039;-70
2022/01/04 01:58:45;;;;;;;11.60;7.65;;;;;;;9.20;100.00;100878.31;4958019;28;20038;-70
2022/01/04 02:01:31;;;;;;;13.52;7.28;;;;;;;9.24;100.00;100888.75;4958439;28;20027;-71
2022/01/04 02:04:17;;;;;;;10.25;7.43;;;;;;;9.20;100.00;100870.47;4943905;29;20027;-71
2022/01/04 02:07:03;;;;;;;12.13;7.50;;;;;;;9.07;100.00;100866.25;4957990;28;20455;-70
2022/01/04 02:10:20;;;;;;;10.93;7.35;;;;;;;9.03;100.00;100865.44;4957267;29;20035;-71
2022/01/04 02:13:06;;;;;;;13.75;7.68;;;;;;;9.02;100.00;100862.81;4957300;28;20051;-71
2022/01/04 02:15:52;;;;;;;13.73;7.88;;;;;;;9.00;100.00;100854.13;4957774;28;20081;-72
2022/01/04 02:18:38;;;;;;;16.02;7.38;;;;;;;9.11;100.00;100857.50;4957456;28;20043;-71
2022/01/04 02:21:23;;;;;;;12.27;6.90;;;;;;;8.96;100.00;100849.81;4958196;28;20073;-71
2022/01/04 02:24:09;;;;;;;16.20;7.75;;;;;;;8.94;100.00;100848.97;4957773;28;20519;-71
2022/01/04 02:26:55;;;;;;;14.50;7.85;;;;;;;8.69;100.00;100863.09;4957740;28;20349;-71
2022/01/04 02:29:42;;;;;;;14.43;7.38;;;;;;;8.67;100.00;100864.84;4942930;29;20022;-72
2022/01/04 02:32:28;;;;;;;12.18;7.80;;;;;;;8.87;100.00;100870.78;4957683;28;20031;-71
2022/01/04 02:35:17;;;;;;;12.32;7.40;;;;;;;8.99;100.00;100868.94;4957263;28;20440;-71
2022/01/04 02:38:03;;;;;;;12.50;7.07;;;;;;;8.91;100.00;100869.88;4956876;29;20031;-71
2022/01/04 02:40:49;;;;;;;11.48;7.22;;;;;;;8.84;100.00;100863.00;4956869;29;20030;-72
2022/01/04 02:43:35;;;;;;;16.13;8.00;;;;;;;8.88;100.00;100862.09;4957842;28;20118;-71
2022/01/04 02:46:20;;;;;;;12.43;8.35;;;;;;;8.79;100.00;100867.38;4956775;29;20023;-71
2022/01/04 02:49:06;;;;;;;12.60;8.02;;;;;;;8.73;100.00;100881.34;4957175;28;20126;-71
2022/01/04 02:55:34;;;;;;;13.30;7.80;;;;;;;8.50;100.00;100901.53;4957800;28;20035;-71
2022/01/04 02:58:20;;;;;;;11.85;8.25;;;;;;;8.71;100.00;100909.22;4957252;28;20045;-70
2022/01/04 03:01:06;;;;;;;11.90;7.82;;;;;;;8.89;100.00;100910.84;4957269;28;20046;-71
2022/01/04 03:03:51;;;;;;;11.10;7.25;;;;;;;8.47;100.00;100913.72;4956972;28;20364;-72
2022/01/04 03:06:37;;;;;;;11.50;7.65;;;;;;;8.75;100.00;100920.50;4957271;28;20058;-70
2022/01/04 03:09:23;;;;;;;12.13;7.82;;;;;;;8.63;100.00;100921.47;4957158;28;20059;-71
2022/01/04 03:13:04;;;;;;;12.63;7.40;;;;;;;8.43;100.00;100923.31;4957127;28;20440;-72
2022/01/04 03:15:50;;;;;;;11.98;7.72;;;;;;;8.33;100.00;100926.84;4956917;28;20078;-73
2022/01/04 03:18:44;;;;;;;11.63;7.55;;;;;;;8.66;100.00;100924.06;4957173;28;20034;-72
2022/01/04 03:21:30;;;;;;;12.65;7.85;;;;;;;8.42;100.00;100929.44;4956214;29;20536;-74
2022/01/04 03:24:16;;;;;;;10.68;7.68;;;;;;;8.54;100.00;100920.66;4956512;28;20073;-73
2022/01/04 03:27:02;;;;;;;12.98;8.05;;;;;;;8.30;100.00;100916.44;4956864;28;20027;-71
2022/01/04 03:29:48;;;;;;;13.02;8.40;;;;;;;8.15;100.00;100920.81;4956682;28;20031;-72
2022/01/04 03:32:34;;;;;;;13.82;8.80;;;;;;;7.96;100.00;100927.84;4957278;28;20044;-72
2022/01/04 03:35:20;;;;;;;16.67;9.25;;;;;;;8.11;100.00;100922.59;4956599;28;20062;-72
2022/01/04 03:38:09;;;;;;;14.63;9.15;;;;;;;8.43;100.00;100927.66;4957313;28;20135;-72
2022/01/04 03:40:55;;;;;;;14.50;8.93;;;;;;;8.31;100.00;100912.06;4955945;29;20471;-73
2022/01/04 03:43:41;;;;;;;19.25;9.55;;;;;;;7.83;100.00;100922.69;4957081;28;20031;-71
2022/01/04 03:46:27;;;;;;;17.20;9.20;;;;;;;7.82;100.00;100934.88;4956679;28;20098;-71
2022/01/04 03:55:57;;;;;;;13.82;9.02;;;;;;;7.58;100.00;100936.66;5043803;23;20049;-71
2022/01/04 03:58:43;;;;;;;15.02;9.80;;;;;;;7.48;100.00;100938.41;4881146;29;20049;-72
2022/01/04 04:01:29;;;;;;;15.13;9.60;;;;;;;7.56;100.00;100943.63;4881081;29;20037;-73
2022/01/04 04:04:14;;;;;;;14.60;8.75;;;;;;;7.63;100.00;100938.38;4880828;29;20345;-72
2022/01/04 04:07:00;;;;;;;14.43;8.88;;;;;;;7.65;100.00;100941.00;4867189;29;20057;-72
2022/01/04 04:09:46;;;;;;;14.05;8.57;;;;;;;7.37;100.00;100936.69;4880932;29;20036;-71
2022/01/04 04:12:31;;;;;;;12.60;9.32;;;;;;;7.51;100.00;100941.03;4867114;29;20422;-72
2022/01/04 04:15:17;;;;;;;13.85;9.55;;;;;;;7.62;100.00;100949.69;4879629;29;20050;-72
2022/01/04 04:18:03;;;;;;;14.63;8.60;;;;;;;7.76;100.00;100947.91;4866427;29;20119;-72
2022/01/04 04:20:49;;;;;;;12.85;9.27;;;;;;;7.66;100.00;100958.38;4880077;29;20499;-71
2022/01/04 04:23:35;;;;;;;12.90;8.02;;;;;;;7.70;100.00;100954.88;4880450;29;20029;-71
2022/01/04 04:26:20;;;;;;;15.48;8.85;;;;;;;7.77;100.00;100954.00;4880471;29;20419;-72
2022/01/04 04:29:06;;;;;;;14.00;8.85;;;;;;;7.94;100.00;100960.03;4866280;29;20033;-71
2022/01/04 04:31:52;;;;;;;16.42;8.70;;;;;;;7.82;100.00;100950.53;4879857;29;20043;-72
2022/01/04 04:34:53;;;;;;;13.13;8.80;;;;;;;8.05;100.00;100950.44;4867061;29;20032;-71
2022/01/04 04:37:39;;;;;;;12.55;8.43;;;;;;;7.72;100.00;100954.00;4883503;29;20438;-72
2022/01/04 04:40:25;;;;;;;12.63;8.52;;;;;;;7.66;100.00;100951.44;4882774;29;20370;-71
2022/01/04 04:43:10;;;;;;;12.15;8.50;;;;;;;7.87;100.00;100960.91;4884233;29;20041;-72
2022/01/04 04:45:56;;;;;;;17.85;9.85;;;;;;;8.00;100.00;100960.88;4882755;29;20115;-71
2022/01/04 04:48:42;;;;;;;12.45;8.52;;;;;;;7.96;100.00;100966.13;4883665;29;20032;-71
2022/01/04 04:51:27;;;;;;;16.10;9.70;;;;;;;7.84;100.00;100951.38;4883771;29;20033;-72
2022/01/04 04:54:13;;;;;;;13.68;9.65;;;;;;;7.77;100.00;100954.00;4882627;29;20029;-70
2022/01/04 04:56:59;;;;;;;15.18;9.57;;;;;;;7.51;100.00;100955.81;4929891;23;20056;-72
2022/01/04 04:59:45;;;;;;;16.23;10.82;;;;;;;7.80;100.00;100954.00;4902292;29;20056;-72
2022/01/04 05:02:30;;;;;;;17.40;11.65;;;;;;;7.84;100.00;100948.75;4900522;29;20124;-72
2022/01/04 05:05:16;;;;;;;17.20;10.18;;;;;;;7.54;100.00;100947.97;4899397;29;20036;-73
2022/01/04 05:08:02;;;;;;;15.05;9.90;;;;;;;7.59;100.00;100946.25;4882963;29;20033;-72
2022/01/04 05:10:48;;;;;;;17.38;10.88;;;;;;;7.55;100.00;100942.75;4883111;29;20093;-71
2022/01/04 05:13:34;;;;;;;19.08;10.98;;;;;;;7.77;100.00;100936.63;4883144;29;20024;-72
2022/01/04 05:16:53;;;;;;;21.60;11.63;;;;;;;7.72;100.00;100933.16;4881837;29;20129;-72
2022/01/04 05:19:40;;;;;;;18.17;11.35;;;;;;;7.67;100.00;100939.28;4882549;29;20029;-72
2022/01/04 05:22:26;;;;;;;17.33;11.40;;;;;;;7.67;100.00;100940.13;4882030;29;20487;-72
2022/01/04 05:25:11;;;;;;;20.75;11.02;;;;;;;7.58;100.00;100934.94;4881852;29;20115;-72
2022/01/04 05:27:58;;;;;;;21.13;11.32;;;;;;;7.68;100.00;100934.03;4881484;29;20041;-72
2022/01/04 05:30:43;;;;;;;14.15;10.35;;;;;;;7.87;100.00;100940.06;4882578;29;20041;-72
2022/01/04 05:33:29;;;;;;;15.52;9.93;;;;;;;7.76;100.00;100942.69;4882543;29;20406;-74
2022/01/04 05:36:15;;;;;;;15.85;10.85;;;;;;;8.02;100.00;100945.22;4882729;29;20024;-71
2022/01/04 05:42:44;;;;;;;19.83;11.18;;;;;;;8.07;100.00;100961.72;5151192;23;20464;-73
2022/01/04 05:45:30;;;;;;;23.20;12.25;;;;;;;8.66;100.00;100963.25;4898696;29;20136;-72
2022/01/04 05:48:20;;;;;;;21.25;11.40;;;;;;;8.57;100.00;100967.66;4881309;29;20340;-72
2022/01/04 05:51:06;;;;;;;15.70;10.15;;;;;;;8.67;100.00;100957.13;4882225;29;20029;-72
2022/01/04 05:53:51;;;;;;;18.85;10.05;;;;;;;8.83;100.00;100953.56;4881903;29;20061;-70
2022/01/04 05:57:36;;;;;;;21.10;10.07;;;;;;;8.81;100.00;100954.44;4882335;29;20379;-72
2022/01/04 06:01:08;;;;;;;17.20;11.27;;;;;;;8.90;100.00;100951.75;4881729;29;20040;-74
2022/01/04 06:04:37;;;;;;;20.52;10.88;;;;;;;8.95;100.00;100957.81;4882372;29;20089;-72
2022/01/04 06:07:23;;;;;;;16.98;10.93;;;;;;;9.29;100.00;100956.69;4882616;29;20450;-72
2022/01/04 06:10:10;;;;;;;20.45;11.90;;;;;;;8.96;100.00;100964.78;4881526;29;20044;-71
2022/01/04 06:15:44;;;;;;;20.52;12.45;;;;;;;9.09;100.00;100953.38;4882149;29;20044;-71
2022/01/04 06:18:30;;;;;;;20.52;12.65;;;;;;;9.31;100.00;100947.94;4882429;29;20097;-70
2022/01/04 06:21:15;;;;;;;20.90;11.60;;;;;;;9.44;100.00;100961.75;4881367;29;20045;-71
2022/01/04 06:24:01;;;;;;;17.88;10.38;;;;;;;9.59;100.00;100970.34;4881319;29;20033;-71
2022/01/04 06:26:47;;;;;;;16.90;9.23;;;;;;;9.52;100.00;100971.28;4881903;29;20029;-71
2022/01/04 06:29:33;;;;;;;20.08;9.00;;;;;;;9.26;100.00;100968.03;4881456;29;20071;-72
2022/01/04 06:32:19;;;;;;;13.80;8.55;;;;;;;9.64;100.00;100967.69;4881719;29;20119;-72
2022/01/04 06:35:05;;;;;;;22.67;12.10;;;;;;;9.93;100.00;100965.66;4881591;29;20108;-70
2022/01/04 06:37:51;;;;;;;18.25;10.85;;;;;;;9.91;100.00;100972.63;4880767;29;20029;-71
2022/01/04 06:40:37;;;;;;;23.23;13.35;;;;;;;9.55;100.00;100963.41;4880419;29;20111;-70
2022/01/04 06:43:22;;;;;;;24.38;13.77;;;;;;;10.05;100.00;100970.78;4880462;29;20052;-70
2022/01/04 06:46:11;;;;;;;22.02;11.57;;;;;;;9.81;100.00;100973.63;4880527;29;20037;-71
2022/01/04 06:48:57;;;;;;;19.88;11.18;;;;;;;9.89;100.00;100983.13;4881282;29;20036;-73
2022/01/04 06:51:47;;;;;;;19.80;12.55;;;;;;;10.21;100.00;100981.94;4880916;29;20029;-71
2022/01/04 06:54:33;;;;;;;16.63;10.77;;;;;;;10.18;100.00;100985.47;4881093;29;20036;-71
2022/01/04 06:57:19;;;;;;;21.17;11.73;;;;;;;10.16;100.00;100989.81;4867901;29;20105;-71
2022/01/04 07:00:06;;;;;;;19.73;11.52;;;;;;;10.00;100.00;100990.84;4879803;29;20469;-71
2022/01/04 07:02:51;;;;;;;19.48;10.60;;;;;;;10.19;100.00;100992.41;4868193;29;20029;-71
2022/01/04 07:05:37;;;;;;;20.67;10.60;;;;;;;10.50;100.00;100999.03;4867950;29;20032;-70
2022/01/04 07:08:23;;;;;;;17.73;10.50;;;;;;;10.13;100.00;100997.75;4881329;29;20029;-70
2022/01/04 07:11:51;;;;;;;17.83;9.63;;;;;;;10.37;100.00;100996.56;4880629;29;20051;-71
2022/01/04 07:14:37;;;;;;;20.60;9.48;;;;;;;10.61;100.00;101004.13;4880441;29;20029;-73
2022/01/04 07:17:22;;;;;;;19.23;10.13;;;;;;;10.69;100.00;101007.50;4880868;29;20037;-72
2022/01/04 07:20:09;;;;;;;20.38;11.05;;;;;;;10.71;100.00;101014.47;4880747;29;20032;-73
2022/01/04 07:22:55;;;;;;;19.60;11.38;;;;;;;10.90;100.00;101020.31;4880198;29;20029;-72
2022/01/04 07:25:41;;;;;;;22.33;10.80;;;;;;;10.97;100.00;101033.31;4881386;29;20036;-72
2022/01/04 07:28:27;;;;;;;22.73;10.48;;;;;;;10.60;100.00;101037.31;4879919;29;20053;-73
2022/01/04 07:31:13;;;;;;;18.08;10.32;;;;;;;10.61;100.00;101028.56;4880548;29;20037;-74
2022/01/04 07:33:59;;;;;;;19.70;11.50;;;;;;;10.72;100.00;101026.66;4880361;29;20048;-72
2022/01/04 07:36:45;;;;;;;17.02;10.40;;;;;;;10.50;100.00;101025.22;4881840;29;20033;-73
2022/01/04 07:39:31;;;;;;;20.05;10.35;;;;;;;10.78;100.00;101025.72;4880340;29;20412;-72
2022/01/04 07:42:17;;;;;;;21.45;10.13;;;;;;;10.86;100.00;101022.13;4867018;29;20040;-73
2022/01/04 07:45:03;;;;;;;20.65;11.55;;;;;;;10.71;100.00;101021.44;4885405;29;20048;-72
2022/01/04 07:47:48;;;;;;;23.02;12.30;;;;;;;11.08;100.00;101010.44;4898241;29;20395;-72
2022/01/04 07:50:34;;;;;;;20.65;12.45;;;;;;;11.32;100.00;101010.06;4898643;29;20148;-72
2022/01/04 07:53:20;;;;;;;25.88;12.23;;;;;;;10.71;100.00;101018.81;4898375;29;20112;-75
2022/01/04 07:56:06;;;;;;;21.35;12.43;;;;;;;10.58;100.00;101007.66;4898378;29;20038;-73
2022/01/04 07:58:52;;;;;;;21.92;11.82;;;;;;;10.89;100.00;101002.88;4885773;29;20024;-72
2022/01/04 08:01:37;;;;;;;23.08;12.80;;;;;;;10.86;100.00;101000.28;4898995;29;20468;-73
2022/01/04 08:04:23;;;;;;;22.30;11.40;;;;;;;11.14;100.00;100994.63;4885983;29;20119;-74
2022/01/04 08:07:09;;;;;;;44.10;13.20;;;;;;;11.30;100.00;100998.75;4898168;29;20037;-72
2022/01/04 08:09:56;;;;;;;21.30;10.90;;;;;;;11.71;100.00;101006.81;4899549;29;20047;-74
2022/01/04 08:12:42;;;;;;;18.88;10.18;;;;;;;12.15;100.00;101012.13;4902029;29;20088;-74
2022/01/04 08:15:29;;;;;;;14.85;9.57;;;;;;;12.33;100.00;101010.88;4901439;29;20184;-73
2022/01/04 08:18:15;;;;;;;16.83;9.65;;;;;;;12.81;100.00;101025.63;4902793;29;20029;-74
2022/01/04 08:21:04;;;;;;;19.17;10.43;;;;;;;13.06;100.00;101026.88;4901357;29;20047;-74
2022/01/04 08:23:49;;;;;;;12.18;7.45;;;;;;;12.55;100.00;101041.97;4901673;29;20028;-72
2022/01/04 08:26:36;;;;;;;12.73;7.10;;;;;;;13.19;100.00;101034.41;4902597;29;20100;-73
2022/01/04 08:29:22;;;;;;;13.18;6.82;;;;;;;13.06;100.00;101043.50;4901514;29;20100;-73
2022/01/04 08:32:07;;;;;;;9.35;6.20;;;;;;;12.95;100.00;101042.84;4902082;29;20036;-74
2022/01/04 08:34:53;;;;;;;11.05;6.28;;;;;;;13.28;100.00;101034.25;4888809;29;20044;-73
2022/01/04 08:37:39;;;;;;;9.75;5.65;;;;;;;13.13;100.00;101025.81;5360421;23;20052;-73
2022/01/04 08:40:25;;;;;;;8.30;4.80;;;;;;;13.35;100.00;101021.78;4919423;29;20028;-73
2022/01/04 08:43:10;;;;;;;11.85;5.90;;;;;;;13.15;100.00;101024.88;4920107;29;20035;-72
2022/01/04 08:45:56;;;;;;;11.43;5.30;;;;;;;13.21;100.00;101022.13;4900705;29;20056;-74
2022/01/04 08:48:42;;;;;;;9.55;5.45;;;;;;;13.19;100.00;101023.06;4901232;29;20117;-72
2022/01/04 08:51:28;;;;;;;13.68;5.93;;;;;;;13.58;100.00;101009.78;4887829;29;20043;-73
2022/01/04 08:54:14;;;;;;;13.25;5.45;;;;;;;13.02;100.00;101027.84;4901102;29;20036;-72
2022/01/04 08:57:00;;;;;;;10.70;5.75;;;;;;;13.28;100.00;101012.31;4901642;29;20036;-73
2022/01/04 08:59:47;;;;;;;14.43;6.13;;;;;;;13.08;100.00;101015.41;4900135;29;20029;-71
2022/01/04 09:02:33;;;;;;;8.85;5.60;;;;;;;13.47;100.00;101003.06;4888536;29;20032;-74
2022/01/04 09:05:19;;;;;;;13.30;6.22;;;;;;;13.51;100.00;100997.69;4888785;29;20036;-72
2022/01/04 09:08:05;;;;;;;10.80;6.07;;;;;;;13.57;100.00;100999.28;4901353;29;20036;-73
2022/01/04 09:10:51;;;;;;;12.18;6.00;;;;;;;14.11;100.00;101001.34;4900248;29;20073;-73
2022/01/04 09:13:40;;;;;;;17.88;7.00;;;;;;;14.20;100.00;100994.97;4888831;29;20107;-73
2022/01/04 09:20:02;;;;;;;11.77;6.70;;;;;;;14.70;100.00;101000.56;4901410;29;20473;-74
2022/01/04 09:22:48;;;;;;;12.57;6.75;;;;;;;14.20;100.00;100992.34;4899595;29;20032;-73
2022/01/04 09:25:34;;;;;;;10.20;6.75;;;;;;;14.42;100.00;100989.09;4900664;29;20025;-72
2022/01/04 09:28:21;;;;;;;11.52;6.30;;;;;;;14.48;99.43;100988.88;4901102;29;20530;-74
2022/01/04 09:31:08;;;;;;;12.15;6.40;;;;;;;14.20;100.00;100981.78;4901111;29;20032;-73
2022/01/04 09:33:55;;;;;;;11.82;7.03;;;;;;;14.55;100.00;100972.00;4900110;29;20036;-73
2022/01/04 09:36:41;;;;;;;10.23;6.20;;;;;;;14.06;100.00;100971.63;4900074;29;20063;-73
2022/01/04 09:39:27;;;;;;;10.68;6.50;;;;;;;14.32;100.00;100971.78;4900436;29;20021;-73
2022/01/04 09:42:12;;;;;;;13.93;7.38;;;;;;;14.07;100.00;100968.09;4888129;29;20024;-75
2022/01/04 09:44:59;;;;;;;9.68;6.63;;;;;;;14.06;100.00;100966.38;4900610;29;20043;-73
2022/01/04 09:47:48;;;;;;;11.52;6.45;;;;;;;14.01;100.00;100949.81;4900362;29;20029;-73
2022/01/04 09:50:36;;;;;;;12.27;6.95;;;;;;;14.06;100.00;100937.38;4887115;29;20414;-74
2022/01/04 09:53:23;;;;;;;12.57;6.28;;;;;;;13.76;100.00;100940.88;4899944;29;20079;-74
2022/01/04 09:56:09;;;;;;;22.77;7.45;;;;;;;13.85;100.00;100927.44;4900422;29;20044;-73
2022/01/04 09:58:55;;;;;;;12.68;6.22;;;;;;;14.08;100.00;100935.59;4899912;29;20063;-73
2022/01/04 10:01:43;;;;;;;14.05;5.78;;;;;;;14.31;100.00;100917.34;4899961;29;20032;-72
2022/01/04 10:04:29;;;;;;;10.18;6.32;;;;;;;14.52;100.00;100916.69;4900119;29;20025;-74
2022/01/04 10:07:21;;;;;;;9.35;5.78;;;;;;;14.18;100.00;100908.06;4899128;29;20080;-72
2022/01/04 10:10:18;;;;;;;10.60;5.75;;;;;;;14.13;99.74;100904.69;4899861;29;20476;-72
2022/01/04 10:13:16;;;;;;;10.30;5.25;;;;;;;14.23;100.00;100900.06;4900660;29;20047;-75
2022/01/04 10:16:03;;;;;;;15.13;6.07;;;;;;;14.47;98.49;100886.16;4899619;29;20040;-72
2022/01/04 10:18:49;;;;;;;14.20;5.82;;;;;;;14.09;98.74;100886.38;4899792;29;20118;-73
2022/01/04 10:21:35;;;;;;;9.23;5.55;;;;;;;13.86;100.00;100879.13;4900160;29;20036;-74
2022/01/04 10:24:21;;;;;;;13.90;6.30;;;;;;;14.55;98.62;100874.44;4900091;29;20036;-72
2022/01/04 10:27:27;;;;;;;10.45;5.40;;;;;;;14.79;95.14;100872.78;4900267;29;20096;-73
2022/01/04 10:30:30;;;;;;;9.25;4.68;;;;;;;14.03;98.78;100879.50;4899753;29;20032;-72
2022/01/04 10:33:21;;;;;;;11.57;5.43;;;;;;;14.76;96.94;100865.84;4899731;29;20111;-74
2022/01/04 10:36:12;;;;;;;10.73;4.93;;;;;;;14.79;94.47;100865.75;4899861;29;20037;-72
2022/01/04 10:39:07;;;;;;;8.85;4.90;;;;;;;14.50;96.87;100857.03;4900109;29;20067;-74
2022/01/04 10:42:04;;;;;;;11.57;4.90;;;;;;;14.97;94.09;100860.78;4885935;29;20032;-73
2022/01/04 10:47:39;;;;;;;8.18;4.05;;;;;;;15.09;90.16;100860.38;5467026;23;20372;-73
2022/01/04 10:50:36;;;;;;;9.60;4.75;;;;;;;15.60;86.43;100861.25;4899647;29;20335;-72
2022/01/04 10:53:31;;;;;;;8.38;4.22;;;;;;;15.63;86.09;100872.56;4899543;29;20036;-73
2022/01/04 10:56:24;;;;;;;24.95;9.30;;;;;;;15.73;87.16;100862.53;4891015;29;20039;-73
2022/01/04 10:59:11;;;;;;;7.57;4.13;;;;;;;15.80;84.77;100864.03;4866909;29;20048;-74
2022/01/04 11:01:58;;;;;;;6.50;4.22;;;;;;;15.59;87.08;100867.47;4881304;29;20091;-73
2022/01/04 11:04:43;;;;;;;6.95;3.78;;;;;;;15.47;88.64;100860.81;4866913;29;20077;-72
2022/01/04 11:08:09;;;;;;;8.85;4.03;;;;;;;15.39;90.61;100854.09;4880496;29;20116;-73
2022/01/04 11:10:56;;;;;;;7.93;4.10;;;;;;;15.61;90.95;100852.41;4881012;29;20036;-73
2022/01/04 11:13:41;;;;;;;9.40;4.05;;;;;;;15.88;90.54;100843.50;4880489;29;20407;-74
2022/01/04 11:16:30;;;;;;;6.85;4.28;;;;;;;16.13;89.19;100844.28;4880286;29;20104;-73
2022/01/04 11:19:19;;;;;;;9.07;4.53;;;;;;;16.02;89.58;100847.34;4880693;29;20355;-73
2022/01/04 11:22:08;;;;;;;9.07;4.85;;;;;;;15.93;91.21;100852.09;4880286;29;20340;-74
2022/01/04 11:24:55;;;;;;;8.48;4.28;;;;;;;15.93;89.81;100855.63;4881271;29;20033;-73
2022/01/04 11:27:41;;;;;;;6.97;4.32;;;;;;;16.09;88.29;100842.69;4880370;29;20037;-73
2022/01/04 11:31:07;;;;;;;9.10;4.68;;;;;;;16.28;88.44;100849.00;4881494;29;20033;-74
2022/01/04 11:34:14;;;;;;;9.52;5.00;;;;;;;16.48;88.63;100842.03;4881081;29;20097;-74
2022/01/04 11:37:00;;;;;;;9.23;5.10;;;;;;;16.06;90.98;100842.78;4879839;29;20142;-74
2022/01/04 11:39:46;;;;;;;7.85;4.38;;;;;;;16.13;91.77;100828.44;4880478;29;20039;-73
2022/01/04 11:42:31;;;;;;;13.05;5.32;;;;;;;16.25;93.00;100812.97;4881175;29;20053;-74
2022/01/04 11:45:44;;;;;;;10.48;5.20;;;;;;;16.37;95.11;100808.97;4882044;29;20140;-73
2022/01/04 11:48:40;;;;;;;8.35;4.95;;;;;;;16.77;90.75;100810.00;4884567;29;20052;-74
2022/01/04 11:51:29;;;;;;;7.55;5.30;;;;;;;16.35;94.13;100810.81;4884594;29;20033;-73
2022/01/04 11:54:21;;;;;;;11.32;5.60;;;;;;;16.24;95.51;100805.94;4884589;29;20104;-73
2022/01/04 11:57:15;;;;;;;9.27;4.80;;;;;;;16.12;93.85;100810.84;4884376;29;20033;-71
2022/01/04 12:00:03;;;;;;;8.75;5.20;;;;;;;16.48;91.90;100806.78;4883935;29;20036;-73
2022/01/04 12:03:32;;;;;;;11.80;4.80;;;;;;;16.41;91.00;100803.53;4883610;29;20119;-73
2022/01/04 12:06:20;;;;;;;9.38;4.80;;;;;;;16.64;88.12;100797.31;4884365;29;20025;-74
2022/01/04 12:09:29;;;;;;;7.68;4.38;;;;;;;16.57;89.46;100793.19;4870958;29;20543;-74
2022/01/04 12:12:53;;;;;;;6.82;4.60;;;;;;;16.58;89.15;100779.03;4884162;29;20116;-74
2022/01/04 12:15:46;;;;;;;6.65;4.57;;;;;;;16.66;90.38;100769.00;4884104;29;20029;-73
2022/01/04 12:18:31;;;;;;;5.60;4.15;;;;;;;16.52;90.54;100760.78;4869930;29;20053;-73
2022/01/04 12:21:20;;;;;;;8.60;4.63;;;;;;;16.72;88.31;100753.72;4883160;29;20029;-72
2022/01/04 12:24:07;;;;;;;9.20;4.80;;;;;;;16.43;91.90;100743.50;4883561;29;20048;-73
2022/01/04 12:27:07;;;;;;;15.07;5.10;;;;;;;16.63;92.34;100734.75;4882912;29;20048;-73
2022/01/04 12:30:26;;;;;;;10.27;4.68;;;;;;;17.04;87.38;100734.69;4883924;29;20416;-72
2022/01/04 12:33:49;;;;;;;9.23;4.55;;;;;;;17.04;83.81;100747.09;4884103;29;20029;-73
2022/01/04 12:36:41;;;;;;;8.27;4.78;;;;;;;16.88;85.12;100743.38;4884120;29;20062;-73
2022/01/04 12:39:41;;;;;;;6.88;4.43;;;;;;;16.44;87.07;100747.00;4883651;29;20029;-72
2022/01/04 12:42:26;;;;;;;5.47;4.03;;;;;;;16.63;86.87;100740.91;4883067;29;20036;-73
2022/01/04 12:45:13;;;;;;;8.38;4.50;;;;;;;16.66;87.39;100742.53;4883385;29;20029;-73
2022/01/04 12:47:58;;;;;;;6.43;3.70;;;;;;;16.07;89.05;100742.28;4881729;29;20553;-73
2022/01/04 12:50:44;;;;;;;7.80;4.00;;;;;;;16.27;87.44;100744.16;4883808;29;20335;-73
2022/01/04 12:53:36;;;;;;;7.55;4.72;;;;;;;16.07;89.27;100736.16;4882822;29;20029;-74
2022/01/04 12:56:22;;;;;;;8.75;4.50;;;;;;;16.19;90.18;100733.03;5308796;23;20020;-73
2022/01/04 12:59:12;;;;;;;9.25;4.57;;;;;;;16.47;88.52;100733.69;4901553;29;20077;-74
2022/01/04 13:02:19;;;;;;;7.25;4.00;;;;;;;16.07;90.39;100731.72;4901747;29;20028;-73
2022/01/04 13:05:07;;;;;;;8.63;4.00;;;;;;;15.76;92.90;100722.41;4900681;29;20346;-73
2022/01/04 13:07:53;;;;;;;7.30;4.30;;;;;;;15.97;91.60;100716.28;4882654;29;20348;-73
2022/01/04 13:10:39;;;;;;;7.10;4.00;;;;;;;16.09;91.06;100715.81;4883116;29;20391;-73
2022/01/04 13:13:25;;;;;;;6.25;3.95;;;;;;;15.96;91.11;100719.88;4882941;29;20033;-74
2022/01/04 13:16:20;;;;;;;6.72;4.57;;;;;;;16.02;90.93;100717.84;4882275;29;20067;-73
2022/01/04 13:19:15;;;;;;;7.70;3.90;;;;;;;15.32;92.77;100729.34;4882603;29;20028;-73
2022/01/04 13:22:08;;;;;;;7.90;4.10;;;;;;;15.79;92.89;100717.03;4882272;29;20469;-72
2022/01/04 13:25:04;;;;;;;6.50;4.10;;;;;;;15.60;94.16;100714.22;4882935;29;20056;-73
2022/01/04 13:27:52;;;;;;;8.77;4.32;;;;;;;15.69;93.49;100713.00;4882027;29;20028;-73